createdAt,value
2018-12-04T09:25:07.097Z,7280.00
2018-12-04T09:26:07.056Z,7576.00
2018-12-04T09:27:07.067Z,8024.00
2018-12-04T09:28:07.054Z,8348.00
2018-12-04T09:29:07.037Z,8152.00
2018-12-04T09:30:07.015Z,7940.00
2018-12-04T09:31:06.979Z,7792.00
2018-12-04T09:32:07.001Z,7576.00
2018-12-04T09:33:06.963Z,7052.00
2018-12-04T09:34:06.951Z,6600.00
2018-12-04T09:35:07.066Z,5952.00
2018-12-04T09:36:06.920Z,5876.00
2018-12-04T09:37:06.912Z,5908.00
2018-12-04T09:38:06.922Z,5792.00
2018-12-04T09:39:06.892Z,5872.00
2018-12-04T09:40:06.898Z,5472.00
2018-12-04T09:41:50.119Z,5332.00
2018-12-04T09:42:50.135Z,5484.00
2018-12-04T09:43:50.120Z,5812.00
2018-12-04T09:44:50.085Z,6244.00
2018-12-04T09:45:50.075Z,6332.00
2018-12-04T09:46:50.080Z,6512.00
2018-12-04T09:47:50.052Z,6612.00
2018-12-04T09:48:50.073Z,7224.00
2018-12-04T09:49:50.061Z,7904.00
2018-12-04T09:50:50.021Z,8416.00
2018-12-04T09:51:50.016Z,8996.00
2018-12-04T09:52:50.002Z,9344.00
2018-12-04T09:53:52.178Z,9048.00
2018-12-04T09:54:49.983Z,7928.00
2018-12-04T09:55:50.050Z,6732.00
2018-12-04T09:56:49.949Z,6068.00
2018-12-04T09:57:49.943Z,5764.00
2018-12-04T09:58:49.954Z,5656.00
2018-12-04T09:59:49.917Z,5604.00
2018-12-04T10:00:49.936Z,5764.00
2018-12-04T10:01:49.912Z,6268.00
2018-12-04T10:02:49.881Z,6876.00
2018-12-04T10:03:49.880Z,7060.00
2018-12-04T10:04:49.872Z,6688.00
2018-12-04T10:05:49.888Z,6116.00
2018-12-04T10:06:49.855Z,6032.00
2018-12-04T10:07:49.823Z,6280.00
2018-12-04T10:08:49.817Z,7368.00
2018-12-04T10:09:49.802Z,8100.00
2018-12-04T10:10:49.823Z,8800.00
2018-12-04T10:11:49.834Z,10152.00
2018-12-04T10:12:49.909Z,11304.00
2018-12-04T10:13:49.760Z,12068.00
2018-12-04T10:14:49.745Z,11840.00
2018-12-04T10:15:49.790Z,10436.00
2018-12-04T10:16:49.774Z,10176.00
2018-12-04T10:17:49.731Z,9200.00
2018-12-04T10:18:49.710Z,8344.00
2018-12-04T10:19:49.688Z,8072.00
2018-12-04T10:20:49.682Z,7460.00
2018-12-04T10:21:51.486Z,6884.00
2018-12-04T10:22:49.657Z,7568.00
2018-12-04T10:23:49.709Z,8684.00
2018-12-04T10:24:49.628Z,7704.00
2018-12-04T10:25:49.660Z,7544.00
2018-12-04T10:26:49.684Z,7860.00
2018-12-04T10:27:49.608Z,8164.00
2018-12-04T10:28:49.601Z,8648.00
2018-12-04T10:29:50.004Z,9100.00
2018-12-04T10:30:49.585Z,9396.00
2018-12-04T10:31:55.787Z,8912.00
2018-12-04T10:32:50.538Z,7912.00
2018-12-04T10:33:49.533Z,9768.00
2018-12-04T10:34:50.378Z,12032.00
2018-12-04T10:35:49.653Z,12976.00
2018-12-04T10:36:55.518Z,11984.00
2018-12-04T10:37:49.482Z,12236.00
2018-12-04T10:38:49.475Z,9596.00
2018-12-04T10:39:49.489Z,6560.00
2018-12-04T10:40:49.453Z,5952.00
2018-12-04T10:41:49.453Z,7040.00
2018-12-04T10:42:49.450Z,7816.00
2018-12-04T10:43:49.411Z,7056.00
2018-12-04T10:44:49.410Z,6476.00
2018-12-04T10:45:49.393Z,6568.00
2018-12-04T10:46:49.384Z,6788.00
2018-12-04T10:47:49.404Z,6680.00
2018-12-04T10:48:49.429Z,6240.00
2018-12-04T10:49:49.373Z,5760.00
2018-12-04T10:50:49.340Z,5264.00
2018-12-04T10:51:49.332Z,5536.00
2018-12-04T10:52:49.340Z,5276.00
2018-12-04T10:53:49.301Z,5816.00
2018-12-04T10:54:49.281Z,6076.00
2018-12-04T10:55:49.296Z,6860.00
2018-12-04T10:56:49.267Z,7732.00
2018-12-04T10:57:49.310Z,8588.00
2018-12-04T10:58:49.255Z,7572.00
2018-12-04T10:59:49.251Z,6964.00
2018-12-04T11:00:49.233Z,6768.00
2018-12-04T11:01:49.220Z,6756.00
2018-12-04T11:02:49.204Z,6876.00
2018-12-04T11:03:49.189Z,7556.00
2018-12-04T11:04:49.190Z,7252.00
2018-12-04T11:05:49.152Z,6572.00
2018-12-04T11:06:49.146Z,6316.00
2018-12-04T11:07:49.149Z,5940.00
2018-12-04T11:08:49.117Z,6180.00
2018-12-04T11:09:49.152Z,6308.00
2018-12-04T11:10:49.109Z,5960.00
2018-12-04T11:11:49.089Z,5240.00
2018-12-04T11:12:49.090Z,5272.00
2018-12-04T11:13:49.067Z,6216.00
2018-12-04T11:14:49.091Z,6404.00
2018-12-04T11:15:49.042Z,6748.00
2018-12-04T11:16:49.047Z,5700.00
2018-12-04T11:17:49.014Z,4824.00
2018-12-04T11:18:48.999Z,4676.00
2018-12-04T11:19:49.027Z,4812.00
2018-12-04T11:20:48.998Z,4820.00
2018-12-04T11:21:48.982Z,4784.00
2018-12-04T11:22:48.983Z,4668.00
2018-12-04T11:23:48.948Z,4412.00
2018-12-04T11:24:48.960Z,4540.00
2018-12-04T11:25:48.914Z,4448.00
2018-12-04T11:26:48.986Z,4492.00
2018-12-04T11:27:48.973Z,4548.00
2018-12-04T11:28:48.896Z,4412.00
2018-12-04T11:29:48.860Z,4412.00
2018-12-04T11:30:48.859Z,4720.00
2018-12-04T11:31:48.901Z,4924.00
2018-12-04T11:32:48.855Z,4912.00
2018-12-04T11:33:48.814Z,4868.00
2018-12-04T11:34:48.824Z,4896.00
2018-12-04T11:35:48.825Z,4864.00
2018-12-04T11:36:48.807Z,4848.00
2018-12-04T11:37:48.799Z,4840.00
2018-12-04T11:38:48.751Z,4856.00
2018-12-04T11:39:48.755Z,4860.00
2018-12-04T11:40:48.756Z,4896.00
2018-12-04T11:41:48.728Z,5076.00
2018-12-04T11:42:48.749Z,5360.00
2018-12-04T11:43:48.690Z,5468.00
2018-12-04T11:44:48.694Z,5516.00
2018-12-04T11:45:48.689Z,5408.00
2018-12-04T11:46:48.667Z,5240.00
2018-12-04T11:47:48.684Z,4996.00
2018-12-04T11:48:48.676Z,4816.00
2018-12-04T11:49:48.628Z,4708.00
2018-12-04T11:50:48.625Z,4636.00
2018-12-04T11:51:48.591Z,4576.00
2018-12-04T11:52:48.621Z,4588.00
2018-12-04T11:53:48.606Z,4600.00
2018-12-04T11:54:48.596Z,4580.00
2018-12-04T11:55:48.611Z,4500.00
2018-12-04T11:56:48.541Z,4340.00
2018-12-04T11:57:48.549Z,4528.00
2018-12-04T11:58:48.516Z,4524.00
2018-12-04T11:59:48.496Z,4516.00
2018-12-04T12:00:48.496Z,4436.00
2018-12-04T12:01:48.468Z,4468.00
2018-12-04T12:02:48.489Z,4460.00
2018-12-04T12:03:48.450Z,4460.00
2018-12-04T12:04:48.486Z,4520.00
2018-12-04T12:05:48.436Z,4588.00
2018-12-04T12:06:48.427Z,4668.00
2018-12-04T12:07:48.429Z,4752.00
2018-12-04T12:08:48.427Z,4748.00
2018-12-04T12:09:48.392Z,4840.00
2018-12-04T12:10:48.382Z,5020.00
2018-12-04T12:11:48.347Z,5076.00
2018-12-04T12:12:48.331Z,5312.00
2018-12-04T12:13:48.322Z,5304.00
2018-12-04T12:14:48.307Z,5276.00
2018-12-04T12:15:48.345Z,5172.00
2018-12-04T12:16:48.285Z,5236.00
2018-12-04T12:17:48.271Z,5192.00
2018-12-04T12:18:48.290Z,5200.00
2018-12-04T12:19:48.249Z,5268.00
2018-12-04T12:20:48.236Z,5264.00
2018-12-04T12:21:48.225Z,5268.00
2018-12-04T12:22:48.235Z,5500.00
2018-12-04T12:23:48.205Z,6368.00
2018-12-04T12:24:48.188Z,6772.00
2018-12-04T12:25:48.178Z,6792.00
2018-12-04T12:26:48.164Z,6592.00
2018-12-04T12:27:48.190Z,6160.00
2018-12-04T12:28:48.160Z,6124.00
2018-12-04T12:29:51.469Z,6364.00
2018-12-04T12:30:48.121Z,6408.00
2018-12-04T12:31:48.099Z,6764.00
2018-12-04T12:32:48.090Z,7384.00
2018-12-04T12:33:48.113Z,8376.00
2018-12-04T12:34:48.062Z,9240.00
2018-12-04T12:35:48.058Z,11008.00
2018-12-04T12:36:48.050Z,12440.00
2018-12-04T12:37:48.026Z,13320.00
2018-12-04T12:38:48.049Z,13872.00
2018-12-04T12:39:48.004Z,14356.00
2018-12-04T12:40:47.997Z,15028.00
2018-12-04T12:41:47.976Z,15488.00
2018-12-04T12:42:47.970Z,15132.00
2018-12-04T12:43:47.975Z,14624.00
2018-12-04T12:44:48.006Z,14464.00
2018-12-04T12:45:47.937Z,14364.00
2018-12-04T12:46:47.921Z,13876.00
2018-12-04T12:47:47.905Z,13144.00
2018-12-04T12:48:47.893Z,12620.00
2018-12-04T12:49:47.910Z,12212.00
2018-12-04T12:50:47.873Z,11172.00
2018-12-04T12:51:47.865Z,10856.00
2018-12-04T12:52:47.852Z,10800.00
2018-12-04T12:53:47.837Z,10784.00
2018-12-04T12:54:47.847Z,10736.00
2018-12-04T12:55:47.839Z,9624.00
2018-12-04T12:56:47.803Z,8036.00
2018-12-04T12:57:47.784Z,6328.00
2018-12-04T12:58:47.771Z,5120.00
2018-12-04T12:59:47.791Z,4472.00
2018-12-04T13:00:47.754Z,4152.00
2018-12-04T13:01:47.747Z,3668.00
2018-12-04T13:02:47.749Z,2976.00
2018-12-04T13:03:47.719Z,2720.00
2018-12-04T13:04:47.803Z,2736.00
2018-12-04T13:05:47.722Z,2680.00
2018-12-04T13:06:47.684Z,2584.00
2018-12-04T13:07:47.664Z,2520.00
2018-12-04T13:08:47.672Z,2532.00
2018-12-04T13:09:47.652Z,2556.00
2018-12-04T13:10:47.678Z,2580.00
2018-12-04T13:11:47.624Z,2600.00
2018-12-04T13:12:47.615Z,2604.00
2018-12-04T13:13:47.607Z,2604.00
2018-12-04T13:14:47.580Z,2600.00
2018-12-04T13:15:47.610Z,2600.00
2018-12-04T13:16:47.559Z,2596.00
2018-12-04T13:17:47.556Z,2600.00
2018-12-04T13:18:47.541Z,2600.00
2018-12-04T13:19:47.530Z,2608.00
2018-12-04T13:20:47.550Z,2624.00
2018-12-04T13:21:47.497Z,2640.00
2018-12-04T13:22:47.508Z,2660.00
2018-12-04T13:23:47.471Z,2672.00
2018-12-04T13:24:47.462Z,2704.00
2018-12-04T13:25:47.455Z,2740.00
2018-12-04T13:26:47.469Z,2812.00
2018-12-04T13:27:47.444Z,2964.00
2018-12-04T13:28:47.411Z,3016.00
2018-12-04T13:29:47.402Z,2928.00
2018-12-04T13:30:47.390Z,2804.00
2018-12-04T13:31:47.409Z,2760.00
2018-12-04T13:32:47.364Z,2736.00
2018-12-04T13:33:47.381Z,2708.00
2018-12-04T13:34:47.344Z,2664.00
2018-12-04T13:35:47.331Z,2620.00
2018-12-04T13:36:47.328Z,2592.00
2018-12-04T13:37:47.336Z,2580.00
2018-12-04T13:38:47.304Z,2560.00
2018-12-04T13:39:47.282Z,2564.00
2018-12-04T13:40:47.271Z,2564.00
2018-12-04T13:41:47.284Z,2556.00
2018-12-04T13:42:47.301Z,2544.00
2018-12-04T13:43:47.238Z,2536.00
2018-12-04T13:44:47.226Z,2524.00
2018-12-04T13:45:47.265Z,2516.00
2018-12-04T13:46:47.203Z,2516.00
2018-12-04T13:47:47.203Z,2500.00
2018-12-04T13:48:47.184Z,2492.00
2018-12-04T13:49:47.194Z,2488.00
2018-12-04T13:50:47.177Z,2488.00
2018-12-04T13:51:47.154Z,2492.00
2018-12-04T13:52:47.156Z,2488.00
2018-12-04T13:53:47.128Z,2492.00
2018-12-04T13:54:47.153Z,2496.00
2018-12-04T13:55:47.107Z,2500.00
2018-12-04T13:56:47.109Z,2508.00
2018-12-04T13:57:50.705Z,2524.00
2018-12-04T13:58:48.974Z,2528.00
2018-12-04T13:59:47.206Z,2540.00
2018-12-04T14:00:47.061Z,2556.00
2018-12-04T14:01:47.101Z,2572.00
2018-12-04T14:02:47.036Z,2592.00
2018-12-04T14:03:47.007Z,2608.00
2018-12-04T14:04:47.032Z,2636.00
2018-12-04T14:05:47.008Z,2668.00
2018-12-04T14:06:46.982Z,2728.00
2018-12-04T14:07:46.963Z,2768.00
2018-12-04T14:08:47.010Z,2780.00
2018-12-04T14:09:46.942Z,2792.00
2018-12-04T14:10:46.932Z,2820.00
2018-12-04T14:11:46.915Z,2788.00
2018-12-04T14:12:46.953Z,2760.00
2018-12-04T14:13:46.923Z,2752.00
2018-12-04T14:14:46.892Z,2748.00
2018-12-04T14:15:46.896Z,2804.00
2018-12-04T14:16:46.886Z,2800.00
2018-12-04T14:17:46.850Z,2784.00
2018-12-04T14:18:46.848Z,2760.00
2018-12-04T14:19:46.854Z,2728.00
2018-12-04T14:20:46.841Z,2700.00
2018-12-04T14:21:46.805Z,2684.00
2018-12-04T14:22:46.795Z,2672.00
2018-12-04T14:23:46.779Z,2652.00
2018-12-04T14:24:46.817Z,2632.00
2018-12-04T14:25:46.768Z,2608.00
2018-12-04T14:26:46.749Z,2552.00
2018-12-04T14:27:49.237Z,2500.00
2018-12-04T14:28:46.728Z,2420.00
2018-12-04T14:29:46.759Z,2324.00
2018-12-04T14:30:46.703Z,2264.00
2018-12-04T14:31:46.699Z,2216.00
2018-12-04T14:32:46.678Z,2172.00
2018-12-04T14:33:46.693Z,2108.00
2018-12-04T14:34:46.712Z,2044.00
2018-12-04T14:35:46.673Z,1964.00
2018-12-04T14:36:46.679Z,1896.00
2018-12-04T14:37:46.621Z,1788.00
2018-12-04T14:38:46.609Z,1676.00
2018-12-04T14:39:46.637Z,1584.00
2018-12-04T14:40:46.589Z,1496.00
2018-12-04T14:41:46.574Z,1404.00
2018-12-04T14:42:46.592Z,1320.00
2018-12-04T14:43:46.556Z,1248.00
2018-12-04T14:44:46.577Z,1204.00
2018-12-04T14:45:46.548Z,1180.00
2018-12-04T14:46:46.522Z,1160.00
2018-12-04T14:47:46.520Z,1132.00
2018-12-04T14:48:46.550Z,1112.00
2018-12-04T14:49:46.512Z,1096.00
2018-12-04T14:50:46.796Z,1076.00
2018-12-04T14:51:46.492Z,1048.00
2018-12-04T14:52:46.457Z,1024.00
2018-12-04T14:53:46.541Z,1000.00
2018-12-04T14:54:46.439Z,968.00
2018-12-04T14:55:46.489Z,936.00
2018-12-04T14:56:46.460Z,908.00
2018-12-04T14:57:46.402Z,912.00
2018-12-04T14:58:46.402Z,888.00
2018-12-04T14:59:46.415Z,856.00
2018-12-04T15:00:46.362Z,824.00
2018-12-04T15:01:46.475Z,792.00
2018-12-04T15:02:46.660Z,768.00
2018-12-04T15:03:46.460Z,748.00
2018-12-04T15:04:46.879Z,724.00
2018-12-04T15:05:46.374Z,700.00
2018-12-04T15:06:46.332Z,672.00
2018-12-04T15:07:46.306Z,640.00
2018-12-04T15:08:46.280Z,632.00
2018-12-04T15:09:46.291Z,644.00
2018-12-04T15:10:46.275Z,648.00
2018-12-04T15:11:46.279Z,640.00
2018-12-04T15:12:46.257Z,620.00
2018-12-04T15:13:46.253Z,596.00
2018-12-04T15:14:46.248Z,576.00
2018-12-04T15:15:46.201Z,564.00
2018-12-04T15:16:46.215Z,552.00
2018-12-04T15:17:46.319Z,536.00
2018-12-04T15:18:46.218Z,516.00
2018-12-04T15:19:46.180Z,496.00
2018-12-04T15:20:46.169Z,464.00
2018-12-04T15:21:46.161Z,432.00
2018-12-04T15:22:46.177Z,396.00
2018-12-04T15:23:46.145Z,360.00
2018-12-04T15:24:46.117Z,332.00
2018-12-04T15:25:46.173Z,308.00
2018-12-04T15:26:46.078Z,288.00
2018-12-04T15:27:46.087Z,272.00
2018-12-04T15:28:46.094Z,248.00
2018-12-04T15:29:46.047Z,240.00
2018-12-04T15:30:46.040Z,220.00
2018-12-04T15:31:46.037Z,208.00
2018-12-04T15:32:46.054Z,192.00
2018-12-04T15:33:46.045Z,180.00
2018-12-04T15:34:45.997Z,164.00
2018-12-04T15:35:46.030Z,152.00
2018-12-04T15:36:46.000Z,140.00
2018-12-04T15:37:45.990Z,128.00
2018-12-04T15:38:45.997Z,116.00
2018-12-04T15:39:45.984Z,108.00
2018-12-04T15:40:45.995Z,100.00
2018-12-04T15:41:46.323Z,92.00
2018-12-04T15:42:45.966Z,88.00
2018-12-04T15:43:45.970Z,84.00
2018-12-04T15:44:45.897Z,76.00
2018-12-04T15:45:45.916Z,72.00
2018-12-04T15:46:45.925Z,72.00
2018-12-04T15:47:45.886Z,64.00
2018-12-04T15:48:45.883Z,64.00
2018-12-04T15:49:45.911Z,60.00
2018-12-04T15:50:45.835Z,60.00
2018-12-04T15:51:45.833Z,60.00
2018-12-04T15:52:45.845Z,60.00
2018-12-04T15:53:45.850Z,56.00
2018-12-04T15:54:45.871Z,56.00
2018-12-04T15:55:45.785Z,52.00
2018-12-04T15:56:45.783Z,52.00
2018-12-04T15:57:45.771Z,52.00
2018-12-04T15:58:45.748Z,52.00
2018-12-04T15:59:45.765Z,48.00
2018-12-04T16:00:45.768Z,52.00
2018-12-04T16:01:45.722Z,52.00
2018-12-04T16:02:45.706Z,52.00
2018-12-04T16:03:45.705Z,52.00
2018-12-04T16:04:45.687Z,48.00
2018-12-04T16:05:45.707Z,48.00
2018-12-04T16:06:45.709Z,48.00
2018-12-04T16:07:45.657Z,48.00
2018-12-04T16:08:45.651Z,48.00
2018-12-04T16:09:45.638Z,48.00
2018-12-04T16:10:45.636Z,48.00
2018-12-04T16:11:45.718Z,44.00
2018-12-04T16:12:45.607Z,44.00
2018-12-04T16:13:45.605Z,48.00
2018-12-04T16:14:45.592Z,48.00
2018-12-04T16:15:45.582Z,48.00
2018-12-04T16:16:45.592Z,48.00
2018-12-04T16:17:45.562Z,48.00
2018-12-04T16:18:45.541Z,48.00
2018-12-04T16:19:45.532Z,48.00
2018-12-04T16:20:45.536Z,48.00
2018-12-04T16:21:45.538Z,48.00
2018-12-04T16:22:45.504Z,48.00
2018-12-04T16:23:45.503Z,48.00
2018-12-04T16:24:45.521Z,48.00
2018-12-04T16:25:45.509Z,48.00
2018-12-04T16:26:45.466Z,52.00
2018-12-04T16:27:45.450Z,52.00
2018-12-04T16:28:45.450Z,48.00
2018-12-04T16:29:45.430Z,52.00
2018-12-04T16:30:45.442Z,48.00
2018-12-04T16:31:45.415Z,48.00
2018-12-04T16:32:45.403Z,48.00
2018-12-04T16:33:45.389Z,44.00
2018-12-04T16:34:45.376Z,48.00
2018-12-04T16:35:45.391Z,48.00
2018-12-04T16:36:45.366Z,48.00
2018-12-04T16:37:45.353Z,44.00
2018-12-04T16:38:45.350Z,52.00
2018-12-04T16:39:45.364Z,52.00
2018-12-04T16:40:45.318Z,44.00
2018-12-04T16:41:45.307Z,48.00
2018-12-04T16:42:45.297Z,48.00
2018-12-04T16:43:45.285Z,44.00
2018-12-04T16:44:45.300Z,44.00
2018-12-04T16:45:45.263Z,48.00
2018-12-04T16:46:45.251Z,48.00
2018-12-04T16:47:45.244Z,48.00
2018-12-04T16:48:45.240Z,48.00
2018-12-04T16:49:45.251Z,48.00
2018-12-04T16:50:45.206Z,48.00
2018-12-04T16:51:45.199Z,48.00
2018-12-04T16:52:45.191Z,48.00
2018-12-04T16:53:45.174Z,48.00
2018-12-04T16:54:45.194Z,44.00
2018-12-04T16:55:45.155Z,48.00
2018-12-04T16:56:45.143Z,44.00
2018-12-04T16:57:45.132Z,44.00
2018-12-04T16:58:45.123Z,48.00
2018-12-04T16:59:45.139Z,44.00
2018-12-04T17:00:45.110Z,48.00
2018-12-04T17:01:45.090Z,48.00
2018-12-04T17:02:45.088Z,44.00
2018-12-04T17:03:45.114Z,44.00
2018-12-04T17:04:45.086Z,48.00
2018-12-04T17:05:45.079Z,44.00
2018-12-04T17:06:45.044Z,48.00
2018-12-04T17:07:45.037Z,48.00
2018-12-04T17:08:45.025Z,48.00
2018-12-04T17:09:45.004Z,48.00
2018-12-04T17:10:45.036Z,44.00
2018-12-04T17:11:44.982Z,44.00
2018-12-04T17:12:44.972Z,48.00
2018-12-04T17:13:44.968Z,44.00
2018-12-04T17:14:44.958Z,44.00
2018-12-04T17:15:44.973Z,44.00
2018-12-04T17:16:44.928Z,44.00
2018-12-04T17:17:44.918Z,44.00
2018-12-04T17:18:44.939Z,44.00
2018-12-04T17:19:44.897Z,48.00
2018-12-04T17:20:44.884Z,48.00
2018-12-04T17:21:44.910Z,48.00
2018-12-04T17:22:44.869Z,48.00
2018-12-04T17:23:44.858Z,44.00
2018-12-04T17:24:44.844Z,44.00
2018-12-04T17:25:44.864Z,48.00
2018-12-04T17:26:44.830Z,48.00
2018-12-04T17:27:44.809Z,44.00
2018-12-04T17:28:44.796Z,44.00
2018-12-04T17:29:44.797Z,48.00
2018-12-04T17:30:44.805Z,44.00
2018-12-04T17:31:44.798Z,44.00
2018-12-04T17:32:44.757Z,44.00
2018-12-04T17:33:44.775Z,44.00
2018-12-04T17:34:44.744Z,44.00
2018-12-04T17:35:44.719Z,48.00
2018-12-04T17:36:44.712Z,44.00
2018-12-04T17:37:44.706Z,44.00
2018-12-04T17:38:44.728Z,48.00
2018-12-04T17:39:44.679Z,44.00
2018-12-04T17:40:44.668Z,44.00
2018-12-04T17:41:44.682Z,44.00
2018-12-04T17:42:44.676Z,48.00
2018-12-04T17:43:44.638Z,44.00
2018-12-04T17:44:44.623Z,44.00
2018-12-04T17:45:44.613Z,44.00
2018-12-04T17:46:44.638Z,44.00
2018-12-04T17:47:44.597Z,44.00
2018-12-04T17:48:44.589Z,44.00
2018-12-04T17:49:44.580Z,48.00
2018-12-04T17:50:44.562Z,44.00
2018-12-04T17:51:44.581Z,44.00
2018-12-04T17:52:44.542Z,44.00
2018-12-04T17:53:44.537Z,44.00
2018-12-04T17:54:44.563Z,48.00
2018-12-04T17:55:44.512Z,44.00
2018-12-04T17:56:44.493Z,44.00
2018-12-04T17:57:44.492Z,48.00
2018-12-04T17:58:44.469Z,48.00
2018-12-04T17:59:44.487Z,48.00
2018-12-04T18:00:44.453Z,48.00
2018-12-04T18:01:44.445Z,48.00
2018-12-04T18:02:44.434Z,44.00
2018-12-04T18:03:44.424Z,48.00
2018-12-04T18:04:44.445Z,44.00
2018-12-04T18:05:44.420Z,44.00
2018-12-04T18:06:44.387Z,44.00
2018-12-04T18:07:44.372Z,48.00
2018-12-04T18:08:44.370Z,44.00
2018-12-04T18:09:44.360Z,48.00
2018-12-04T18:10:44.379Z,44.00
2018-12-04T18:11:44.327Z,44.00
2018-12-04T18:12:44.321Z,44.00
2018-12-04T18:13:44.312Z,48.00
2018-12-04T18:14:44.298Z,44.00
2018-12-04T18:15:44.316Z,44.00
2018-12-04T18:16:44.296Z,48.00
2018-12-04T18:17:44.271Z,44.00
2018-12-04T18:18:44.256Z,44.00
2018-12-04T18:19:44.241Z,44.00
2018-12-04T18:20:44.264Z,48.00
2018-12-04T18:21:44.221Z,48.00
2018-12-04T18:22:44.222Z,44.00
2018-12-04T18:23:44.196Z,48.00
2018-12-04T18:24:44.184Z,44.00
2018-12-04T18:25:44.202Z,44.00
2018-12-04T18:26:44.168Z,44.00
2018-12-04T18:27:44.155Z,48.00
2018-12-04T18:28:44.150Z,44.00
2018-12-04T18:29:44.164Z,48.00
2018-12-04T18:30:44.143Z,44.00
2018-12-04T18:31:44.106Z,44.00
2018-12-04T18:32:44.103Z,48.00
2018-12-04T18:33:44.085Z,44.00
2018-12-04T18:34:44.081Z,44.00
2018-12-04T18:35:44.184Z,48.00
2018-12-04T18:36:44.057Z,44.00
2018-12-04T18:37:44.040Z,44.00
2018-12-04T18:38:44.033Z,44.00
2018-12-04T18:39:44.028Z,44.00
2018-12-04T18:40:44.044Z,44.00
2018-12-04T18:41:44.005Z,44.00
2018-12-04T18:42:43.993Z,44.00
2018-12-04T18:43:44.025Z,44.00
2018-12-04T18:44:43.968Z,44.00
2018-12-04T18:45:43.963Z,40.00
2018-12-04T18:46:43.943Z,48.00
2018-12-04T18:47:43.937Z,44.00
2018-12-04T18:48:43.957Z,44.00
2018-12-04T18:49:43.917Z,44.00
2018-12-04T18:50:43.909Z,44.00
2018-12-04T18:51:43.920Z,40.00
2018-12-04T18:52:43.886Z,40.00
2018-12-04T18:53:43.875Z,44.00
2018-12-04T18:54:43.862Z,44.00
2018-12-04T18:55:43.857Z,40.00
2018-12-04T18:56:43.866Z,40.00
2018-12-04T18:57:43.845Z,44.00
2018-12-04T18:58:43.812Z,40.00
2018-12-04T18:59:43.805Z,44.00
2018-12-04T19:00:43.793Z,44.00
2018-12-04T19:01:43.785Z,40.00
2018-12-04T19:02:43.802Z,44.00
2018-12-04T19:03:43.758Z,44.00
2018-12-04T19:04:43.746Z,44.00
2018-12-04T19:05:43.742Z,44.00
2018-12-04T19:06:43.745Z,40.00
2018-12-04T19:07:43.746Z,44.00
2018-12-04T19:08:43.702Z,44.00
2018-12-04T19:09:43.692Z,44.00
2018-12-04T19:10:43.680Z,44.00
2018-12-04T19:11:43.670Z,44.00
2018-12-04T19:12:43.690Z,44.00
2018-12-04T19:13:43.651Z,44.00
2018-12-04T19:14:43.649Z,44.00
2018-12-04T19:15:43.627Z,40.00
2018-12-04T19:16:43.617Z,44.00
2018-12-04T19:17:43.654Z,44.00
2018-12-04T19:18:43.596Z,40.00
2018-12-04T19:19:43.585Z,40.00
2018-12-04T19:20:43.565Z,40.00
2018-12-04T19:21:43.562Z,40.00
2018-12-04T19:22:43.579Z,40.00
2018-12-04T19:23:43.557Z,44.00
2018-12-04T19:24:43.521Z,40.00
2018-12-04T19:25:43.520Z,40.00
2018-12-04T19:26:43.510Z,40.00
2018-12-04T19:27:43.495Z,44.00
2018-12-04T19:28:43.512Z,44.00
2018-12-04T19:29:43.466Z,44.00
2018-12-04T19:30:43.457Z,44.00
2018-12-04T19:31:43.448Z,44.00
2018-12-04T19:32:43.467Z,40.00
2018-12-04T19:33:43.432Z,44.00
2018-12-04T19:34:43.418Z,40.00
2018-12-04T19:35:43.419Z,40.00
2018-12-04T19:36:43.388Z,44.00
2018-12-04T19:37:43.410Z,40.00
2018-12-04T19:38:43.370Z,44.00
2018-12-04T19:39:43.353Z,40.00
2018-12-04T19:40:43.345Z,44.00
2018-12-04T19:41:43.345Z,40.00
2018-12-04T19:42:43.346Z,44.00
2018-12-04T19:43:43.313Z,44.00
2018-12-04T19:44:43.306Z,40.00
2018-12-04T19:45:43.288Z,44.00
2018-12-04T19:46:43.320Z,40.00
2018-12-04T19:47:43.269Z,44.00
2018-12-04T19:48:43.266Z,44.00
2018-12-04T19:49:43.243Z,40.00
2018-12-04T19:50:43.237Z,40.00
2018-12-04T19:51:43.282Z,44.00
2018-12-04T19:52:43.211Z,44.00
2018-12-04T19:53:43.198Z,44.00
2018-12-04T19:54:43.194Z,44.00
2018-12-04T19:55:43.193Z,40.00
2018-12-04T19:56:43.199Z,44.00
2018-12-04T19:57:43.160Z,44.00
2018-12-04T19:58:43.145Z,40.00
2018-12-04T19:59:43.131Z,40.00
2018-12-04T20:00:43.120Z,44.00
2018-12-04T20:01:43.133Z,44.00
2018-12-04T20:02:43.105Z,40.00
2018-12-04T20:03:43.135Z,44.00
2018-12-04T20:04:43.107Z,44.00
2018-12-04T20:05:43.067Z,44.00
2018-12-04T20:06:43.057Z,40.00
2018-12-04T20:07:43.049Z,44.00
2018-12-04T20:08:43.031Z,44.00
2018-12-04T20:09:43.066Z,44.00
2018-12-04T20:10:43.019Z,44.00
2018-12-04T20:11:43.005Z,40.00
2018-12-04T20:12:42.988Z,48.00
2018-12-04T20:13:42.981Z,40.00
2018-12-04T20:14:42.989Z,44.00
2018-12-04T20:15:42.959Z,44.00
2018-12-04T20:16:42.947Z,40.00
2018-12-04T20:17:42.932Z,44.00
2018-12-04T20:18:42.935Z,44.00
2018-12-04T20:19:42.940Z,44.00
2018-12-04T20:20:42.904Z,40.00
2018-12-04T20:21:42.889Z,48.00
2018-12-04T20:22:42.878Z,44.00
2018-12-04T20:23:42.864Z,44.00
2018-12-04T20:24:42.881Z,44.00
2018-12-04T20:25:42.876Z,44.00
2018-12-04T20:26:42.834Z,44.00
2018-12-04T20:27:42.821Z,44.00
2018-12-04T20:28:42.829Z,44.00
2018-12-04T20:29:42.799Z,40.00
2018-12-04T20:30:42.816Z,44.00
2018-12-04T20:31:42.804Z,44.00
2018-12-04T20:32:42.772Z,40.00
2018-12-04T20:33:42.756Z,40.00
2018-12-04T20:34:42.743Z,40.00
2018-12-04T20:35:42.762Z,40.00
2018-12-04T20:36:42.724Z,40.00
2018-12-04T20:37:42.710Z,44.00
2018-12-04T20:38:42.705Z,40.00
2018-12-04T20:39:42.720Z,44.00
2018-12-04T20:40:42.682Z,40.00
2018-12-04T20:41:42.664Z,40.00
2018-12-04T20:42:42.659Z,44.00
2018-12-04T20:43:42.644Z,44.00
2018-12-04T20:44:42.663Z,44.00
2018-12-04T20:45:42.631Z,44.00
2018-12-04T20:46:42.627Z,44.00
2018-12-04T20:47:42.625Z,44.00
2018-12-04T20:48:42.593Z,40.00
2018-12-04T20:49:42.606Z,44.00
2018-12-04T20:50:42.571Z,44.00
2018-12-04T20:51:42.560Z,40.00
2018-12-04T20:52:42.579Z,44.00
2018-12-04T20:53:42.550Z,44.00
2018-12-04T20:54:42.521Z,44.00
2018-12-04T20:55:42.516Z,40.00
2018-12-04T20:56:42.511Z,44.00
2018-12-04T20:57:42.518Z,44.00
2018-12-04T20:58:42.488Z,44.00
2018-12-04T20:59:42.469Z,40.00
2018-12-04T21:00:42.463Z,44.00
2018-12-04T21:01:42.444Z,40.00
2018-12-04T21:02:42.462Z,44.00
2018-12-04T21:03:42.424Z,44.00
2018-12-04T21:04:42.433Z,44.00
2018-12-04T21:05:42.411Z,48.00
2018-12-04T21:06:42.419Z,48.00
2018-12-04T21:07:42.385Z,44.00
2018-12-04T21:08:42.366Z,44.00
2018-12-04T21:09:42.353Z,44.00
2018-12-04T21:10:42.341Z,40.00
2018-12-04T21:11:42.359Z,44.00
2018-12-04T21:12:42.332Z,40.00
2018-12-04T21:13:42.308Z,44.00
2018-12-04T21:14:42.298Z,40.00
2018-12-04T21:15:42.290Z,40.00
2018-12-04T21:16:42.301Z,44.00
2018-12-04T21:17:42.265Z,44.00
2018-12-04T21:18:42.309Z,44.00
2018-12-04T21:19:42.339Z,44.00
2018-12-04T21:20:42.245Z,40.00
2018-12-04T21:21:42.253Z,44.00
2018-12-04T21:22:42.217Z,44.00
2018-12-04T21:23:42.202Z,44.00
2018-12-04T21:24:42.195Z,40.00
2018-12-04T21:25:42.183Z,44.00
2018-12-04T21:26:42.213Z,44.00
2018-12-04T21:27:42.155Z,44.00
2018-12-04T21:28:42.150Z,44.00
2018-12-04T21:29:42.136Z,44.00
2018-12-04T21:30:42.126Z,44.00
2018-12-04T21:31:42.146Z,44.00
2018-12-04T21:32:42.111Z,40.00
2018-12-04T21:33:42.090Z,44.00
2018-12-04T21:34:48.189Z,44.00
2018-12-04T21:35:43.070Z,40.00
2018-12-04T21:36:42.081Z,44.00
2018-12-04T21:37:42.044Z,40.00
2018-12-04T21:38:42.032Z,44.00
2018-12-04T21:39:42.045Z,40.00
2018-12-04T21:40:42.017Z,40.00
2018-12-04T21:41:41.998Z,44.00
2018-12-04T21:42:41.986Z,44.00
2018-12-04T21:43:42.002Z,44.00
2018-12-04T21:44:41.964Z,44.00
2018-12-04T21:45:41.970Z,44.00
2018-12-04T21:46:41.957Z,40.00
2018-12-04T21:47:41.937Z,40.00
2018-12-04T21:48:41.919Z,40.00
2018-12-04T21:49:41.933Z,40.00
2018-12-04T21:50:41.936Z,44.00
2018-12-04T21:51:41.892Z,40.00
2018-12-04T21:52:41.875Z,44.00
2018-12-04T21:53:41.864Z,44.00